sensor_id;sensor_type;location;lat;lon;timestamp;temperature;humidity
6863;DHT22;3470;48.738;9.616;2023-07-30T00:02:18;17.60;99.90
6863;DHT22;3470;48.738;9.616;2023-07-30T00:04:44;17.60;99.90
6863;DHT22;3470;48.738;9.616;2023-07-30T00:07:11;17.50;99.90
6863;DHT22;3470;48.738;9.616;2023-07-30T00:09:37;17.40;99.90
6863;DHT22;3470;48.738;9.616;2023-07-30T00:12:04;17.30;99.90
6863;DHT22;3470;48.738;9.616;2023-07-30T00:14:29;17.40;99.90
6863;DHT22;3470;48.738;9.616;2023-07-30T00:16:55;17.40;99.90
6863;DHT22;3470;48.738;9.616;2023-07-30T00:19:21;17.40;99.90
6863;DHT22;3470;48.738;9.616;2023-07-30T00:21:46;17.40;99.90
6863;DHT22;3470;48.738;9.616;2023-07-30T00:24:14;17.40;99.90
6863;DHT22;3470;48.738;9.616;2023-07-30T00:26:40;17.20;99.90
6863;DHT22;3470;48.738;9.616;2023-07-30T00:29:06;17.10;99.90
6863;DHT22;3470;48.738;9.616;2023-07-30T00:31:32;17.10;99.90
6863;DHT22;3470;48.738;9.616;2023-07-30T00:33:57;17.00;99.90
6863;DHT22;3470;48.738;9.616;2023-07-30T00:36:23;17.00;99.90
6863;DHT22;3470;48.738;9.616;2023-07-30T00:38:48;17.00;99.90
6863;DHT22;3470;48.738;9.616;2023-07-30T00:41:14;16.90;99.90
6863;DHT22;3470;48.738;9.616;2023-07-30T00:43:39;16.80;99.90
6863;DHT22;3470;48.738;9.616;2023-07-30T00:46:05;16.80;99.90
6863;DHT22;3470;48.738;9.616;2023-07-30T00:48:31;16.80;99.90
6863;DHT22;3470;48.738;9.616;2023-07-30T00:50:57;16.80;99.90
6863;DHT22;3470;48.738;9.616;2023-07-30T00:53:24;17.00;99.90
6863;DHT22;3470;48.738;9.616;2023-07-30T00:55:51;17.00;99.90
6863;DHT22;3470;48.738;9.616;2023-07-30T00:58:17;17.10;99.90
6863;DHT22;3470;48.738;9.616;2023-07-30T01:00:44;17.20;99.90
6863;DHT22;3470;48.738;9.616;2023-07-30T01:03:10;17.20;99.90
6863;DHT22;3470;48.738;9.616;2023-07-30T01:05:36;17.30;99.90
6863;DHT22;3470;48.738;9.616;2023-07-30T01:08:01;17.40;99.90
6863;DHT22;3470;48.738;9.616;2023-07-30T01:10:29;17.40;99.90
6863;DHT22;3470;48.738;9.616;2023-07-30T01:12:55;17.50;99.90
6863;DHT22;3470;48.738;9.616;2023-07-30T01:15:20;17.40;99.90
6863;DHT22;3470;48.738;9.616;2023-07-30T01:17:46;17.40;99.90
6863;DHT22;3470;48.738;9.616;2023-07-30T01:20:12;17.30;99.90
6863;DHT22;3470;48.738;9.616;2023-07-30T16:33:50;21.50;92.60
6863;DHT22;3470;48.738;9.616;2023-07-30T16:36:15;21.10;93.10
6863;DHT22;3470;48.738;9.616;2023-07-30T16:38:41;21.00;93.00
6863;DHT22;3470;48.738;9.616;2023-07-30T16:41:08;21.00;92.20
6863;DHT22;3470;48.738;9.616;2023-07-30T16:43:34;21.00;92.00
6863;DHT22;3470;48.738;9.616;2023-07-30T16:46:00;20.90;92.70
6863;DHT22;3470;48.738;9.616;2023-07-30T16:48:28;20.90;92.80
6863;DHT22;3470;48.738;9.616;2023-07-30T16:50:54;20.80;92.20
6863;DHT22;3470;48.738;9.616;2023-07-30T16:53:19;20.60;92.00
6863;DHT22;3470;48.738;9.616;2023-07-30T16:55:45;20.50;92.80
6863;DHT22;3470;48.738;9.616;2023-07-30T16:58:10;20.40;92.70
6863;DHT22;3470;48.738;9.616;2023-07-30T17:00:36;20.40;92.40
6863;DHT22;3470;48.738;9.616;2023-07-30T17:03:02;20.40;92.20
6863;DHT22;3470;48.738;9.616;2023-07-30T17:05:30;20.30;91.70
6863;DHT22;3470;48.738;9.616;2023-07-30T17:07:56;20.30;92.10
6863;DHT22;3470;48.738;9.616;2023-07-30T17:10:21;20.20;91.90
6863;DHT22;3470;48.738;9.616;2023-07-30T17:12:47;20.10;91.60
6863;DHT22;3470;48.738;9.616;2023-07-30T17:15:13;20.10;91.60
6863;DHT22;3470;48.738;9.616;2023-07-30T17:17:38;19.90;92.10
6863;DHT22;3470;48.738;9.616;2023-07-30T17:20:04;19.80;91.90
6863;DHT22;3470;48.738;9.616;2023-07-30T17:22:30;19.80;92.40
6863;DHT22;3470;48.738;9.616;2023-07-30T17:24:56;19.80;92.20
6863;DHT22;3470;48.738;9.616;2023-07-30T17:27:24;19.80;91.70
6863;DHT22;3470;48.738;9.616;2023-07-30T17:29:49;19.80;92.20
6863;DHT22;3470;48.738;9.616;2023-07-30T17:32:15;19.80;92.50
6863;DHT22;3470;48.738;9.616;2023-07-30T17:34:41;19.80;92.10
6863;DHT22;3470;48.738;9.616;2023-07-30T17:37:06;19.80;92.30
6863;DHT22;3470;48.738;9.616;2023-07-30T17:39:36;19.80;92.20
6863;DHT22;3470;48.738;9.616;2023-07-30T17:42:03;19.80;92.30
6863;DHT22;3470;48.738;9.616;2023-07-30T17:44:28;19.80;92.50
6863;DHT22;3470;48.738;9.616;2023-07-30T17:46:54;19.80;92.40
6863;DHT22;3470;48.738;9.616;2023-07-30T17:49:19;19.80;92.50
6863;DHT22;3470;48.738;9.616;2023-07-30T17:51:45;19.80;92.90
6863;DHT22;3470;48.738;9.616;2023-07-30T17:54:11;19.70;92.50
6863;DHT22;3470;48.738;9.616;2023-07-30T17:56:36;19.70;92.60
6863;DHT22;3470;48.738;9.616;2023-07-30T17:59:02;19.50;92.30
6863;DHT22;3470;48.738;9.616;2023-07-30T18:01:28;19.40;92.70
6863;DHT22;3470;48.738;9.616;2023-07-30T18:03:53;19.30;93.40
6863;DHT22;3470;48.738;9.616;2023-07-30T18:06:19;19.10;93.20
6863;DHT22;3470;48.738;9.616;2023-07-30T18:08:45;19.00;93.50
6863;DHT22;3470;48.738;9.616;2023-07-30T18:11:10;18.90;94.00
6863;DHT22;3470;48.738;9.616;2023-07-30T18:13:36;18.80;93.00
6863;DHT22;3470;48.738;9.616;2023-07-30T18:16:01;18.70;92.90
6863;DHT22;3470;48.738;9.616;2023-07-30T18:18:27;18.60;92.60
6863;DHT22;3470;48.738;9.616;2023-07-30T18:20:53;18.50;92.50
6863;DHT22;3470;48.738;9.616;2023-07-30T18:23:18;18.40;92.60
6863;DHT22;3470;48.738;9.616;2023-07-30T18:25:44;18.30;92.60
6863;DHT22;3470;48.738;9.616;2023-07-30T18:28:09;18.30;92.80
6863;DHT22;3470;48.738;9.616;2023-07-30T18:30:36;18.10;92.80
6863;DHT22;3470;48.738;9.616;2023-07-30T18:33:01;18.10;92.80
6863;DHT22;3470;48.738;9.616;2023-07-30T18:35:28;18.00;92.60
6863;DHT22;3470;48.738;9.616;2023-07-30T18:37:53;17.90;92.80
6863;DHT22;3470;48.738;9.616;2023-07-30T18:40:19;17.90;93.40
6863;DHT22;3470;48.738;9.616;2023-07-30T18:42:45;17.80;93.20
6863;DHT22;3470;48.738;9.616;2023-07-30T18:45:13;17.70;93.20
6863;DHT22;3470;48.738;9.616;2023-07-30T18:47:39;17.70;93.20
6863;DHT22;3470;48.738;9.616;2023-07-30T18:50:05;17.70;93.60
6863;DHT22;3470;48.738;9.616;2023-07-30T18:52:31;17.60;93.70
6863;DHT22;3470;48.738;9.616;2023-07-30T18:54:59;17.50;93.80
6863;DHT22;3470;48.738;9.616;2023-07-30T18:57:24;17.40;94.20
6863;DHT22;3470;48.738;9.616;2023-07-30T18:59:50;17.40;94.10
6863;DHT22;3470;48.738;9.616;2023-07-30T19:02:16;17.30;94.30
6863;DHT22;3470;48.738;9.616;2023-07-30T19:04:41;17.30;94.40
6863;DHT22;3470;48.738;9.616;2023-07-30T19:07:07;17.20;94.40
6863;DHT22;3470;48.738;9.616;2023-07-30T19:09:33;17.30;94.60
6863;DHT22;3470;48.738;9.616;2023-07-30T19:11:58;17.20;94.80
6863;DHT22;3470;48.738;9.616;2023-07-30T19:14:24;17.10;94.80
6863;DHT22;3470;48.738;9.616;2023-07-30T19:16:49;17.10;95.00
6863;DHT22;3470;48.738;9.616;2023-07-30T19:19:15;17.00;95.10
6863;DHT22;3470;48.738;9.616;2023-07-30T19:21:41;17.00;95.30
6863;DHT22;3470;48.738;9.616;2023-07-30T19:24:06;16.90;95.60
6863;DHT22;3470;48.738;9.616;2023-07-30T19:26:32;16.80;95.80
6863;DHT22;3470;48.738;9.616;2023-07-30T19:28:57;16.80;96.20
6863;DHT22;3470;48.738;9.616;2023-07-30T19:31:23;16.70;96.10
6863;DHT22;3470;48.738;9.616;2023-07-30T19:33:50;16.70;96.10
6863;DHT22;3470;48.738;9.616;2023-07-30T19:36:15;16.70;96.10
6863;DHT22;3470;48.738;9.616;2023-07-30T19:38:41;16.70;96.10
6863;DHT22;3470;48.738;9.616;2023-07-30T19:41:07;16.70;96.20
6863;DHT22;3470;48.738;9.616;2023-07-30T19:43:33;16.70;96.10
6863;DHT22;3470;48.738;9.616;2023-07-30T19:45:59;16.70;96.30
6863;DHT22;3470;48.738;9.616;2023-07-30T19:48:25;16.70;96.00
6863;DHT22;3470;48.738;9.616;2023-07-30T19:50:51;16.80;95.90
6863;DHT22;3470;48.738;9.616;2023-07-30T19:53:18;16.80;96.10
6863;DHT22;3470;48.738;9.616;2023-07-30T19:55:43;16.80;95.90
6863;DHT22;3470;48.738;9.616;2023-07-30T19:58:30;16.80;95.80
6863;DHT22;3470;48.738;9.616;2023-07-30T20:00:57;16.80;95.70
6863;DHT22;3470;48.738;9.616;2023-07-30T20:03:24;16.90;95.70
6863;DHT22;3470;48.738;9.616;2023-07-30T20:05:49;16.80;95.70
6863;DHT22;3470;48.738;9.616;2023-07-30T20:08:15;16.80;95.70
6863;DHT22;3470;48.738;9.616;2023-07-30T20:10:40;16.80;95.80
6863;DHT22;3470;48.738;9.616;2023-07-30T20:13:06;16.70;96.00
6863;DHT22;3470;48.738;9.616;2023-07-30T20:15:35;16.70;96.10
6863;DHT22;3470;48.738;9.616;2023-07-30T20:18:02;16.60;96.20
6863;DHT22;3470;48.738;9.616;2023-07-30T20:20:28;16.60;96.50
6863;DHT22;3470;48.738;9.616;2023-07-30T20:22:55;16.60;96.40
6863;DHT22;3470;48.738;9.616;2023-07-30T20:25:20;16.50;96.50
6863;DHT22;3470;48.738;9.616;2023-07-30T20:27:46;16.50;96.90
6863;DHT22;3470;48.738;9.616;2023-07-30T20:30:11;16.40;97.10
6863;DHT22;3470;48.738;9.616;2023-07-30T20:32:37;16.40;97.20
6863;DHT22;3470;48.738;9.616;2023-07-30T20:35:06;16.30;97.00
6863;DHT22;3470;48.738;9.616;2023-07-30T20:37:31;16.40;97.00
6863;DHT22;3470;48.738;9.616;2023-07-30T20:39:57;16.30;97.10
6863;DHT22;3470;48.738;9.616;2023-07-30T20:42:23;16.20;97.20
6863;DHT22;3470;48.738;9.616;2023-07-30T20:44:49;16.20;97.40
6863;DHT22;3470;48.738;9.616;2023-07-30T20:47:15;16.10;97.40
6863;DHT22;3470;48.738;9.616;2023-07-30T20:49:41;16.10;97.40
6863;DHT22;3470;48.738;9.616;2023-07-30T20:52:08;16.10;97.60
6863;DHT22;3470;48.738;9.616;2023-07-30T20:54:34;16.00;97.60
6863;DHT22;3470;48.738;9.616;2023-07-30T20:57:00;16.00;97.60
6863;DHT22;3470;48.738;9.616;2023-07-30T20:59:26;16.10;97.70
6863;DHT22;3470;48.738;9.616;2023-07-30T21:01:52;16.10;97.70
6863;DHT22;3470;48.738;9.616;2023-07-30T21:04:17;16.10;97.70
6863;DHT22;3470;48.738;9.616;2023-07-30T21:06:43;16.10;97.80
6863;DHT22;3470;48.738;9.616;2023-07-30T21:09:08;16.10;97.70
6863;DHT22;3470;48.738;9.616;2023-07-30T21:11:34;16.10;97.90
6863;DHT22;3470;48.738;9.616;2023-07-30T21:14:00;16.10;98.00
6863;DHT22;3470;48.738;9.616;2023-07-30T21:16:25;16.00;97.90
6863;DHT22;3470;48.738;9.616;2023-07-30T21:18:51;16.00;98.00
6863;DHT22;3470;48.738;9.616;2023-07-30T21:21:16;16.00;98.00
6863;DHT22;3470;48.738;9.616;2023-07-30T21:23:42;16.10;98.00
6863;DHT22;3470;48.738;9.616;2023-07-30T21:26:07;16.10;97.90
6863;DHT22;3470;48.738;9.616;2023-07-30T21:28:33;16.00;98.50
6863;DHT22;3470;48.738;9.616;2023-07-30T21:31:03;15.80;99.10
6863;DHT22;3470;48.738;9.616;2023-07-30T21:33:30;15.60;99.70
6863;DHT22;3470;48.738;9.616;2023-07-30T21:35:56;15.40;99.90
6863;DHT22;3470;48.738;9.616;2023-07-30T21:38:22;15.30;99.90
6863;DHT22;3470;48.738;9.616;2023-07-30T21:40:47;15.20;99.90
6863;DHT22;3470;48.738;9.616;2023-07-30T21:43:13;15.20;99.90
6863;DHT22;3470;48.738;9.616;2023-07-30T21:45:38;15.10;99.90
6863;DHT22;3470;48.738;9.616;2023-07-30T21:48:05;15.10;99.90
6863;DHT22;3470;48.738;9.616;2023-07-30T21:50:31;15.10;99.90
6863;DHT22;3470;48.738;9.616;2023-07-30T21:52:57;15.00;99.90
6863;DHT22;3470;48.738;9.616;2023-07-30T21:55:22;14.90;99.90
6863;DHT22;3470;48.738;9.616;2023-07-30T21:57:48;14.90;99.90
6863;DHT22;3470;48.738;9.616;2023-07-30T22:00:14;14.80;99.90
6863;DHT22;3470;48.738;9.616;2023-07-30T22:02:40;14.80;99.90
6863;DHT22;3470;48.738;9.616;2023-07-30T22:05:06;14.70;99.90
6863;DHT22;3470;48.738;9.616;2023-07-30T22:07:32;14.70;99.90
6863;DHT22;3470;48.738;9.616;2023-07-30T22:09:57;14.70;99.90
6863;DHT22;3470;48.738;9.616;2023-07-30T22:12:23;14.60;99.90
6863;DHT22;3470;48.738;9.616;2023-07-30T22:14:49;14.50;99.90
6863;DHT22;3470;48.738;9.616;2023-07-30T22:17:15;14.60;99.90
6863;DHT22;3470;48.738;9.616;2023-07-30T22:19:40;14.60;99.90
6863;DHT22;3470;48.738;9.616;2023-07-30T22:22:06;14.60;99.90
6863;DHT22;3470;48.738;9.616;2023-07-30T22:24:31;14.50;99.90
6863;DHT22;3470;48.738;9.616;2023-07-30T22:26:57;14.50;99.90
6863;DHT22;3470;48.738;9.616;2023-07-30T22:29:22;14.50;99.90
6863;DHT22;3470;48.738;9.616;2023-07-30T22:31:48;14.40;99.90
6863;DHT22;3470;48.738;9.616;2023-07-30T22:34:13;14.40;99.90
6863;DHT22;3470;48.738;9.616;2023-07-30T22:36:39;14.30;99.90
6863;DHT22;3470;48.738;9.616;2023-07-30T22:39:05;14.20;99.90
6863;DHT22;3470;48.738;9.616;2023-07-30T22:41:30;14.20;99.90
6863;DHT22;3470;48.738;9.616;2023-07-30T22:43:56;14.10;99.90
6863;DHT22;3470;48.738;9.616;2023-07-30T22:46:21;14.00;99.90
6863;DHT22;3470;48.738;9.616;2023-07-30T22:48:47;13.90;99.90
6863;DHT22;3470;48.738;9.616;2023-07-30T22:51:13;13.90;99.90
6863;DHT22;3470;48.738;9.616;2023-07-30T22:53:38;13.80;99.90
